createdAt,value
2018-10-05T00:01:38.963Z,12.70
2018-10-05T00:04:07.046Z,12.70
2018-10-05T00:06:35.221Z,12.70
2018-10-05T00:09:04.455Z,12.80
2018-10-05T00:11:32.509Z,12.70
2018-10-05T00:14:00.599Z,12.70
2018-10-05T00:16:28.660Z,12.70
2018-10-05T00:18:56.768Z,12.70
2018-10-05T00:21:24.856Z,12.70
2018-10-05T00:23:52.927Z,12.80
2018-10-05T00:26:21.050Z,12.80
2018-10-05T00:28:49.199Z,12.90
2018-10-05T00:31:17.287Z,12.90
2018-10-05T00:33:45.352Z,13.00
2018-10-05T00:36:13.456Z,13.00
2018-10-05T00:38:41.665Z,13.00
2018-10-05T00:41:09.726Z,13.00
2018-10-05T00:43:37.808Z,13.00
2018-10-05T00:46:05.915Z,13.00
2018-10-05T00:48:34.020Z,13.00
2018-10-05T00:51:02.112Z,13.00
2018-10-05T00:53:30.224Z,13.10
2018-10-05T00:55:58.262Z,13.10
2018-10-05T00:58:26.348Z,13.10
2018-10-05T01:00:54.416Z,13.10
2018-10-05T01:03:22.502Z,13.10
2018-10-05T01:05:50.571Z,13.10
2018-10-05T01:08:18.647Z,13.10
2018-10-05T01:10:46.747Z,13.10
2018-10-05T01:13:14.811Z,13.10
2018-10-05T01:15:42.851Z,13.10
2018-10-05T01:18:10.929Z,13.10
2018-10-05T01:20:38.995Z,13.10
2018-10-05T01:23:07.073Z,13.00
2018-10-05T01:25:35.162Z,12.90
2018-10-05T01:28:03.219Z,12.90
2018-10-05T01:30:31.306Z,13.00
2018-10-05T01:32:59.502Z,13.00
2018-10-05T01:35:27.615Z,13.00
2018-10-05T01:37:55.764Z,13.00
2018-10-05T01:40:23.930Z,13.00
2018-10-05T01:42:52.020Z,13.00
2018-10-05T01:45:20.152Z,13.10
2018-10-05T01:47:48.248Z,13.10
2018-10-05T01:50:16.315Z,13.10
2018-10-05T01:52:44.399Z,13.10
2018-10-05T01:55:12.471Z,13.00
2018-10-05T01:57:40.611Z,13.00
2018-10-05T02:00:08.744Z,13.00
2018-10-05T02:02:36.836Z,13.00
2018-10-05T02:05:05.153Z,13.00
2018-10-05T02:07:33.293Z,13.00
2018-10-05T02:10:01.414Z,13.00
2018-10-05T02:12:29.600Z,13.00
2018-10-05T02:14:57.696Z,13.00
2018-10-05T02:17:25.785Z,13.00
2018-10-05T02:19:53.943Z,13.00
2018-10-05T02:22:22.051Z,13.00
2018-10-05T02:24:50.156Z,13.00
2018-10-05T02:27:18.260Z,13.00
2018-10-05T02:29:46.409Z,13.00
2018-10-05T02:32:14.507Z,12.90
2018-10-05T02:34:42.584Z,12.90
2018-10-05T02:37:10.698Z,13.00
2018-10-05T02:39:38.783Z,13.00
2018-10-05T02:42:06.871Z,13.00
2018-10-05T02:44:34.976Z,13.00
2018-10-05T02:47:03.040Z,13.10
2018-10-05T02:49:31.101Z,13.00
2018-10-05T02:51:59.219Z,13.00
2018-10-05T02:54:27.319Z,13.00
2018-10-05T02:56:55.388Z,13.10
2018-10-05T02:59:23.476Z,13.10
2018-10-05T03:02:34.029Z,13.10
2018-10-05T03:05:02.080Z,13.10
2018-10-05T03:07:30.980Z,13.10
2018-10-05T03:10:00.394Z,13.10
2018-10-05T03:12:28.787Z,13.20
2018-10-05T03:14:56.880Z,13.10
2018-10-05T03:17:24.964Z,13.20
2018-10-05T03:19:53.058Z,13.20
2018-10-05T03:22:21.198Z,13.10
2018-10-05T03:24:49.303Z,13.10
2018-10-05T03:27:17.451Z,13.10
2018-10-05T03:29:45.573Z,13.10
2018-10-05T03:32:13.680Z,13.00
2018-10-05T03:34:41.872Z,13.00
2018-10-05T03:37:09.947Z,13.00
2018-10-05T03:39:38.040Z,13.00
2018-10-05T03:42:06.165Z,13.00
2018-10-05T03:44:34.262Z,13.00
2018-10-05T03:47:02.315Z,13.00
2018-10-05T03:49:30.410Z,12.90
2018-10-05T03:51:58.517Z,12.90
2018-10-05T03:54:26.830Z,12.90
2018-10-05T03:56:54.954Z,12.90
2018-10-05T03:59:23.052Z,12.90
2018-10-05T04:01:51.152Z,12.90
2018-10-05T04:04:19.224Z,12.80
2018-10-05T04:06:47.318Z,12.90
2018-10-05T04:09:15.440Z,12.90
2018-10-05T04:11:43.601Z,12.90
2018-10-05T04:14:11.725Z,13.00
2018-10-05T04:16:39.845Z,13.00
2018-10-05T04:19:08.108Z,13.00
2018-10-05T04:21:36.189Z,12.80
2018-10-05T04:24:04.397Z,12.80
2018-10-05T04:26:39.436Z,12.90
2018-10-05T04:29:07.541Z,12.80
2018-10-05T04:31:35.629Z,12.80
2018-10-05T04:34:03.733Z,12.80
2018-10-05T04:36:31.817Z,12.80
2018-10-05T04:39:00.416Z,12.80
2018-10-05T04:41:28.481Z,12.80
2018-10-05T04:43:56.553Z,12.80
2018-10-05T04:46:24.628Z,12.80
2018-10-05T04:48:52.697Z,12.80
2018-10-05T04:51:20.775Z,12.90
2018-10-05T04:53:48.852Z,12.90
2018-10-05T04:56:16.913Z,12.80
2018-10-05T04:58:45.036Z,12.90
2018-10-05T05:01:13.135Z,12.90
2018-10-05T05:03:41.244Z,12.90
2018-10-05T05:06:09.466Z,12.90
2018-10-05T05:08:37.562Z,12.90
2018-10-05T05:11:05.843Z,13.00
2018-10-05T05:13:33.989Z,13.00
2018-10-05T05:16:02.086Z,13.00
2018-10-05T05:18:30.311Z,13.00
2018-10-05T05:20:58.606Z,13.00
2018-10-05T05:23:26.767Z,13.10
2018-10-05T05:25:54.862Z,13.10
2018-10-05T05:28:23.008Z,13.10
2018-10-05T05:30:51.338Z,13.10
2018-10-05T05:33:19.501Z,13.10
2018-10-05T05:35:47.646Z,13.10
2018-10-05T05:38:15.718Z,13.20
2018-10-05T05:40:43.836Z,13.20
2018-10-05T05:43:11.899Z,13.20
2018-10-05T05:45:40.015Z,13.30
2018-10-05T05:48:08.332Z,13.30
2018-10-05T05:50:36.448Z,13.30
2018-10-05T05:53:04.593Z,13.30
2018-10-05T05:55:32.693Z,13.30
2018-10-05T05:58:00.796Z,13.30
2018-10-05T06:00:28.894Z,13.30
2018-10-05T06:02:57.006Z,13.30
2018-10-05T06:05:25.139Z,13.30
2018-10-05T06:07:53.306Z,13.20
2018-10-05T06:10:21.512Z,13.20
2018-10-05T06:12:49.644Z,13.20
2018-10-05T06:15:17.870Z,13.20
2018-10-05T06:17:45.936Z,13.20
2018-10-05T06:20:14.067Z,13.20
2018-10-05T06:22:42.260Z,13.20
2018-10-05T06:25:10.409Z,13.20
2018-10-05T06:27:38.482Z,13.20
2018-10-05T06:30:06.616Z,12.30
2018-10-05T06:32:34.687Z,13.20
2018-10-05T06:35:02.808Z,13.30
2018-10-05T06:37:31.100Z,13.40
2018-10-05T06:39:59.623Z,13.80
2018-10-05T06:42:28.327Z,14.40
2018-10-05T06:44:56.648Z,14.90
2018-10-05T06:47:24.909Z,15.10
2018-10-05T06:49:53.015Z,15.30
2018-10-05T06:52:21.424Z,15.20
2018-10-05T06:54:49.533Z,14.80
2018-10-05T06:57:17.982Z,14.60
2018-10-05T06:59:46.079Z,14.40
2018-10-05T07:02:14.268Z,14.30
2018-10-05T07:04:42.334Z,14.20
2018-10-05T07:07:10.423Z,14.10
2018-10-05T07:09:38.543Z,14.00
2018-10-05T07:12:06.640Z,13.90
2018-10-05T07:14:34.783Z,13.80
2018-10-05T07:17:02.960Z,13.80
2018-10-05T07:19:31.029Z,13.80
2018-10-05T07:21:59.106Z,13.90
2018-10-05T07:24:27.188Z,13.90
2018-10-05T07:26:55.270Z,14.10
2018-10-05T07:29:23.361Z,14.10
2018-10-05T07:31:51.464Z,14.10
2018-10-05T07:34:19.543Z,14.20
2018-10-05T07:36:47.832Z,14.30
2018-10-05T07:39:15.900Z,14.40
2018-10-05T07:41:44.017Z,14.50
2018-10-05T07:44:12.136Z,14.50
2018-10-05T07:46:40.217Z,14.60
2018-10-05T07:49:08.411Z,14.60
2018-10-05T07:51:36.642Z,14.80
2018-10-05T07:54:04.673Z,14.90
2018-10-05T07:56:32.744Z,14.90
2018-10-05T07:59:00.860Z,15.00
2018-10-05T08:01:28.956Z,15.10
2018-10-05T08:03:57.058Z,15.10
2018-10-05T08:06:25.232Z,15.10
2018-10-05T08:08:53.366Z,15.10
2018-10-05T08:11:21.436Z,15.20
2018-10-05T08:13:49.490Z,15.20
2018-10-05T08:16:17.608Z,15.40
2018-10-05T08:18:45.708Z,15.50
2018-10-05T08:21:13.854Z,15.60
2018-10-05T08:23:41.907Z,15.60
2018-10-05T08:26:10.031Z,15.70
2018-10-05T08:28:38.106Z,15.80
2018-10-05T08:31:06.218Z,15.80
2018-10-05T08:33:34.323Z,15.90
2018-10-05T08:36:02.486Z,16.00
2018-10-05T08:38:30.598Z,16.10
2018-10-05T08:40:58.772Z,16.00
2018-10-05T08:43:26.860Z,16.20
2018-10-05T08:45:55.044Z,16.30
2018-10-05T08:48:23.163Z,16.30
2018-10-05T08:50:51.287Z,16.30
2018-10-05T08:53:19.444Z,16.40
2018-10-05T08:55:47.655Z,16.40
2018-10-05T08:58:15.757Z,16.50
2018-10-05T09:00:43.957Z,16.50
2018-10-05T09:03:12.073Z,16.50
2018-10-05T09:05:40.180Z,16.60
2018-10-05T09:08:08.353Z,16.60
2018-10-05T09:10:36.454Z,16.60
2018-10-05T09:13:04.575Z,16.70
2018-10-05T09:15:32.680Z,16.80
2018-10-05T09:18:00.796Z,16.80
2018-10-05T09:20:28.928Z,16.90
2018-10-05T09:22:57.024Z,17.00
2018-10-05T09:25:25.116Z,17.00
2018-10-05T09:27:53.186Z,17.00
2018-10-05T09:30:21.353Z,17.20
2018-10-05T09:32:49.484Z,17.30
2018-10-05T09:35:17.588Z,17.30
2018-10-05T09:37:45.754Z,17.30
2018-10-05T09:40:13.897Z,17.40
2018-10-05T09:42:42.024Z,17.40
2018-10-05T09:45:10.216Z,17.40
2018-10-05T09:47:38.310Z,17.40
2018-10-05T09:50:06.411Z,17.50
2018-10-05T09:52:34.539Z,17.50
2018-10-05T09:55:02.608Z,17.50
2018-10-05T09:57:30.721Z,17.60
2018-10-05T09:59:58.978Z,17.60
2018-10-05T10:02:32.404Z,17.70
2018-10-05T10:05:00.838Z,17.80
2018-10-05T10:07:28.947Z,17.90
2018-10-05T10:09:57.045Z,18.00
2018-10-05T10:12:25.174Z,18.00
2018-10-05T10:14:53.292Z,17.90
2018-10-05T10:17:21.400Z,18.00
2018-10-05T10:19:49.536Z,18.10
2018-10-05T10:22:17.660Z,18.30
2018-10-05T10:24:45.738Z,18.30
2018-10-05T10:27:13.858Z,18.40
2018-10-05T10:29:41.948Z,18.30
2018-10-05T10:32:10.018Z,18.40
2018-10-05T10:34:38.261Z,18.50
2018-10-05T10:37:06.214Z,18.60
2018-10-05T10:39:34.288Z,18.60
2018-10-05T10:42:02.315Z,18.70
2018-10-05T10:44:30.440Z,18.80
2018-10-05T10:46:58.581Z,18.80
2018-10-05T10:49:26.706Z,18.80
2018-10-05T10:51:54.778Z,18.80
2018-10-05T10:54:22.933Z,18.80
2018-10-05T10:56:51.000Z,18.90
2018-10-05T10:59:19.074Z,18.90
2018-10-05T11:01:47.176Z,18.90
2018-10-05T11:04:15.385Z,18.90
2018-10-05T11:06:43.542Z,19.00
2018-10-05T11:09:11.603Z,19.00
2018-10-05T11:11:39.788Z,19.00
2018-10-05T11:14:07.943Z,19.10
2018-10-05T11:16:36.116Z,19.20
2018-10-05T11:19:04.227Z,19.30
2018-10-05T11:21:32.285Z,19.30
2018-10-05T11:24:00.348Z,19.30
2018-10-05T11:26:28.445Z,19.30
2018-10-05T11:28:56.558Z,19.30
2018-10-05T11:31:24.622Z,19.30
2018-10-05T11:33:52.869Z,19.40
2018-10-05T11:36:21.026Z,19.50
2018-10-05T11:38:49.224Z,19.50
2018-10-05T11:41:17.319Z,19.60
2018-10-05T11:43:45.464Z,19.50
2018-10-05T11:46:13.566Z,19.60
2018-10-05T11:48:41.683Z,19.50
2018-10-05T11:51:09.752Z,19.50
2018-10-05T11:53:37.926Z,19.50
2018-10-05T11:56:06.042Z,19.50
2018-10-05T11:58:34.101Z,19.50
2018-10-05T12:01:02.200Z,19.50
2018-10-05T12:03:30.454Z,19.60
2018-10-05T12:05:58.523Z,19.60
2018-10-05T12:08:26.624Z,19.60
2018-10-05T12:10:54.988Z,19.60
2018-10-05T12:13:23.158Z,19.60
2018-10-05T12:15:51.230Z,19.70
2018-10-05T12:18:19.265Z,19.60
2018-10-05T12:20:47.384Z,19.60
2018-10-05T12:23:15.490Z,19.60
2018-10-05T12:25:43.568Z,19.70
2018-10-05T12:28:11.652Z,19.80
2018-10-05T12:30:39.784Z,19.80
2018-10-05T12:33:07.898Z,19.80
2018-10-05T12:35:35.981Z,19.80
2018-10-05T12:38:04.112Z,19.80
2018-10-05T12:40:32.207Z,19.80
2018-10-05T12:43:00.368Z,19.80
2018-10-05T12:45:28.432Z,19.80
2018-10-05T12:47:56.580Z,19.90
2018-10-05T12:50:24.651Z,19.90
2018-10-05T12:52:52.707Z,20.00
2018-10-05T12:55:20.980Z,20.00
2018-10-05T12:57:49.088Z,20.00
2018-10-05T13:00:17.261Z,20.00
2018-10-05T13:02:45.337Z,20.00
2018-10-05T13:05:13.490Z,20.00
2018-10-05T13:07:41.618Z,20.00
2018-10-05T13:10:09.735Z,20.10
2018-10-05T13:12:37.853Z,20.00
2018-10-05T13:15:06.038Z,20.10
2018-10-05T13:17:34.155Z,20.00
2018-10-05T13:20:02.211Z,20.00
2018-10-05T13:22:30.302Z,20.00
2018-10-05T13:24:58.389Z,20.00
2018-10-05T13:27:26.531Z,20.10
2018-10-05T13:29:54.650Z,20.10
2018-10-05T13:32:22.758Z,20.10
2018-10-05T13:34:50.953Z,20.10
2018-10-05T13:37:19.113Z,20.10
2018-10-05T13:39:47.194Z,20.10
2018-10-05T13:42:15.441Z,20.10
2018-10-05T13:44:43.519Z,20.10
2018-10-05T13:47:11.621Z,20.00
2018-10-05T13:49:39.695Z,20.00
2018-10-05T13:52:07.798Z,20.00
2018-10-05T13:54:35.901Z,20.00
2018-10-05T13:57:03.968Z,20.00
2018-10-05T13:59:32.104Z,20.00
2018-10-05T14:02:00.187Z,20.00
2018-10-05T14:04:28.342Z,20.00
2018-10-05T14:06:56.427Z,20.00
2018-10-05T14:09:24.497Z,20.30
2018-10-05T14:11:52.569Z,20.80
2018-10-05T14:14:20.659Z,21.00
2018-10-05T14:16:48.809Z,21.10
2018-10-05T14:19:16.972Z,20.90
2018-10-05T14:21:45.127Z,20.70
2018-10-05T14:24:13.178Z,20.60
2018-10-05T14:26:41.303Z,20.50
2018-10-05T14:29:09.399Z,20.30
2018-10-05T14:31:37.602Z,20.30
2018-10-05T14:34:05.682Z,20.20
2018-10-05T14:36:33.808Z,20.10
2018-10-05T14:39:01.975Z,20.00
2018-10-05T14:41:30.207Z,19.90
2018-10-05T14:43:58.569Z,19.80
2018-10-05T14:46:26.678Z,19.70
2018-10-05T14:48:54.828Z,19.60
2018-10-05T14:51:22.958Z,19.60
2018-10-05T14:53:51.048Z,19.50
2018-10-05T14:56:19.427Z,19.50
2018-10-05T14:58:47.657Z,19.40
2018-10-05T15:01:15.966Z,19.40
2018-10-05T15:03:44.256Z,19.40
2018-10-05T15:06:12.374Z,19.40
2018-10-05T15:08:40.536Z,19.30
2018-10-05T15:11:08.682Z,19.20
2018-10-05T15:13:36.772Z,19.10
2018-10-05T15:16:04.879Z,19.10
2018-10-05T15:18:33.003Z,19.10
2018-10-05T15:21:01.232Z,19.00
2018-10-05T15:23:29.335Z,18.90
2018-10-05T15:25:57.545Z,18.90
2018-10-05T15:28:25.686Z,18.90
2018-10-05T15:30:53.769Z,18.80
2018-10-05T15:33:21.859Z,18.80
2018-10-05T15:35:50.370Z,18.70
2018-10-05T15:38:18.423Z,18.70
2018-10-05T15:40:46.495Z,18.60
2018-10-05T15:43:14.652Z,18.50
2018-10-05T15:45:42.725Z,18.50
2018-10-05T15:48:10.808Z,18.50
2018-10-05T15:50:38.891Z,18.50
2018-10-05T15:53:07.076Z,18.50
2018-10-05T15:55:35.226Z,18.40
2018-10-05T15:58:03.322Z,18.40
2018-10-05T16:00:31.398Z,18.30
2018-10-05T16:02:59.487Z,18.30
2018-10-05T16:05:27.552Z,18.20
2018-10-05T16:07:55.675Z,18.10
2018-10-05T16:10:23.782Z,18.00
2018-10-05T16:12:51.962Z,18.00
2018-10-05T16:15:19.980Z,17.90
2018-10-05T16:17:48.067Z,17.80
2018-10-05T16:20:16.173Z,17.70
2018-10-05T16:22:45.897Z,17.70
2018-10-05T16:25:14.016Z,17.60
2018-10-05T16:27:42.191Z,17.50
2018-10-05T16:30:10.836Z,17.40
2018-10-05T16:32:39.029Z,17.30
2018-10-05T16:35:07.232Z,17.30
2018-10-05T16:37:35.402Z,17.20
2018-10-05T16:40:03.472Z,17.10
2018-10-05T16:42:31.596Z,17.20
2018-10-05T16:44:59.669Z,17.10
2018-10-05T16:47:27.835Z,17.00
2018-10-05T16:49:55.994Z,16.90
2018-10-05T16:52:25.188Z,16.90
2018-10-05T16:54:53.344Z,16.80
2018-10-05T16:57:21.504Z,16.80
2018-10-05T16:59:49.614Z,16.60
2018-10-05T17:02:17.738Z,16.60
2018-10-05T17:04:45.779Z,16.60
2018-10-05T17:07:13.960Z,16.60
2018-10-05T17:09:42.046Z,16.50
2018-10-05T17:12:10.205Z,16.40
2018-10-05T17:14:38.328Z,16.40
2018-10-05T17:17:06.782Z,16.40
2018-10-05T17:19:34.831Z,16.40
2018-10-05T17:22:02.907Z,16.40
2018-10-05T17:24:31.017Z,16.30
2018-10-05T17:26:59.092Z,16.30
2018-10-05T17:29:27.314Z,16.20
2018-10-05T17:31:55.372Z,16.20
2018-10-05T17:34:23.486Z,16.10
2018-10-05T17:36:51.600Z,16.00
2018-10-05T17:39:19.679Z,15.90
2018-10-05T17:41:47.851Z,15.80
2018-10-05T17:44:15.983Z,15.80
2018-10-05T17:46:44.046Z,15.70
2018-10-05T17:49:12.142Z,15.70
2018-10-05T17:51:40.506Z,15.70
2018-10-05T17:54:08.613Z,15.50
2018-10-05T17:56:36.740Z,15.40
2018-10-05T17:59:04.852Z,15.30
2018-10-05T18:01:32.977Z,15.30
2018-10-05T18:04:01.148Z,15.30
2018-10-05T18:06:29.286Z,15.30
2018-10-05T18:08:57.598Z,15.30
2018-10-05T18:11:25.842Z,15.30
2018-10-05T18:13:53.948Z,15.30
2018-10-05T18:16:22.046Z,15.30
2018-10-05T18:18:50.215Z,15.20
2018-10-05T18:21:18.328Z,15.10
2018-10-05T18:23:46.460Z,15.10
2018-10-05T18:26:14.621Z,15.10
2018-10-05T18:28:42.723Z,15.10
2018-10-05T18:31:10.816Z,15.20
2018-10-05T18:33:38.987Z,15.20
2018-10-05T18:36:07.028Z,15.20
2018-10-05T18:38:35.204Z,15.20
2018-10-05T18:41:03.350Z,15.20
2018-10-05T18:43:32.307Z,15.20
2018-10-05T18:46:00.491Z,15.10
2018-10-05T18:48:28.692Z,15.10
2018-10-05T18:50:56.852Z,15.00
2018-10-05T18:53:24.963Z,14.90
2018-10-05T18:55:53.136Z,14.90
2018-10-05T18:58:21.249Z,14.90
2018-10-05T19:00:49.335Z,14.80
2018-10-05T19:03:17.456Z,14.80
2018-10-05T19:05:45.574Z,14.80
2018-10-05T19:08:13.680Z,14.80
2018-10-05T19:10:41.808Z,14.70
2018-10-05T19:13:09.921Z,14.80
2018-10-05T19:15:38.067Z,14.70
2018-10-05T19:18:06.352Z,14.70
2018-10-05T19:20:34.428Z,14.80
2018-10-05T19:23:02.618Z,14.70
2018-10-05T19:25:30.715Z,14.70
2018-10-05T19:27:58.913Z,14.70
2018-10-05T19:30:27.014Z,14.80
2018-10-05T19:32:55.182Z,14.70
2018-10-05T19:35:23.270Z,14.60
2018-10-05T19:37:51.408Z,14.60
2018-10-05T19:40:19.623Z,14.50
2018-10-05T19:42:47.733Z,14.50
2018-10-05T19:45:15.880Z,14.40
2018-10-05T19:47:43.976Z,14.40
2018-10-05T19:50:12.048Z,14.30
2018-10-05T19:52:40.114Z,14.30
2018-10-05T19:55:08.219Z,14.30
2018-10-05T19:57:36.352Z,14.30
2018-10-05T20:00:04.499Z,14.30
2018-10-05T20:02:32.676Z,14.20
2018-10-05T20:05:00.804Z,14.10
2018-10-05T20:07:29.008Z,14.10
2018-10-05T20:09:57.171Z,14.00
2018-10-05T20:12:25.227Z,14.00
2018-10-05T20:14:53.365Z,13.90
2018-10-05T20:17:21.467Z,13.90
2018-10-05T20:19:49.570Z,13.90
2018-10-05T20:22:17.716Z,13.80
2018-10-05T20:24:45.824Z,13.70
2018-10-05T20:27:14.001Z,13.70
2018-10-05T20:29:42.077Z,13.70
2018-10-05T20:32:10.185Z,13.70
2018-10-05T20:34:38.289Z,13.60
2018-10-05T20:37:06.612Z,13.60
2018-10-05T20:39:34.623Z,13.50
2018-10-05T20:42:02.697Z,13.50
2018-10-05T20:44:30.815Z,13.50
2018-10-05T20:46:58.892Z,13.60
2018-10-05T20:49:27.048Z,13.60
2018-10-05T20:51:55.131Z,13.60
2018-10-05T20:54:23.257Z,13.50
2018-10-05T20:56:51.328Z,13.50
2018-10-05T20:59:19.437Z,13.50
2018-10-05T21:01:47.818Z,13.40
2018-10-05T21:04:15.979Z,13.40
2018-10-05T21:06:44.233Z,13.40
2018-10-05T21:09:12.503Z,13.40
2018-10-05T21:11:40.855Z,13.40
2018-10-05T21:14:09.090Z,13.40
2018-10-05T21:16:37.476Z,13.30
2018-10-05T21:19:05.958Z,13.30
2018-10-05T21:21:34.128Z,13.30
2018-10-05T21:24:02.342Z,13.30
2018-10-05T21:26:30.438Z,13.30
2018-10-05T21:28:58.591Z,13.20
2018-10-05T21:31:26.727Z,13.20
2018-10-05T21:33:54.815Z,13.20
2018-10-05T21:36:22.950Z,13.10
2018-10-05T21:38:51.143Z,13.10
2018-10-05T21:41:19.327Z,13.00
2018-10-05T21:43:47.443Z,13.00
2018-10-05T21:46:15.570Z,12.90
2018-10-05T21:48:43.649Z,12.90
2018-10-05T21:51:11.753Z,12.90
2018-10-05T21:53:39.911Z,12.90
2018-10-05T21:56:08.075Z,12.80
2018-10-05T21:58:36.142Z,12.70
2018-10-05T22:01:04.279Z,12.60
2018-10-05T22:03:32.485Z,12.60
2018-10-05T22:06:00.614Z,12.50
2018-10-05T22:08:28.696Z,12.40
2018-10-05T22:10:56.774Z,12.40
2018-10-05T22:13:24.871Z,12.50
2018-10-05T22:15:53.020Z,12.40
2018-10-05T22:18:21.089Z,12.40
2018-10-05T22:20:49.243Z,12.30
2018-10-05T22:23:17.447Z,12.30
2018-10-05T22:25:45.641Z,12.30
2018-10-05T22:28:13.814Z,12.40
2018-10-05T22:30:41.995Z,12.30
2018-10-05T22:33:10.082Z,12.30
2018-10-05T22:35:38.340Z,12.30
2018-10-05T22:38:06.401Z,12.30
2018-10-05T22:40:34.537Z,12.40
2018-10-05T22:43:02.630Z,12.30
2018-10-05T22:45:30.740Z,12.30
2018-10-05T22:47:58.818Z,12.30
2018-10-05T22:50:26.980Z,12.20
2018-10-05T22:52:55.060Z,12.30
2018-10-05T22:55:23.221Z,12.30
2018-10-05T22:57:51.339Z,12.40
2018-10-05T23:00:19.453Z,12.30
2018-10-05T23:02:47.536Z,12.40
2018-10-05T23:05:15.656Z,12.30
2018-10-05T23:07:44.381Z,12.30
2018-10-05T23:10:12.446Z,12.20
2018-10-05T23:12:40.647Z,12.20
2018-10-05T23:15:08.756Z,12.10
2018-10-05T23:17:36.904Z,12.00
2018-10-05T23:20:05.001Z,12.00
2018-10-05T23:22:33.074Z,12.00
2018-10-05T23:25:01.175Z,12.00
2018-10-05T23:27:29.295Z,11.90
2018-10-05T23:29:57.460Z,11.90
2018-10-05T23:32:25.547Z,11.90
2018-10-05T23:34:53.683Z,11.90
2018-10-05T23:37:21.777Z,11.90
2018-10-05T23:39:49.861Z,11.90
2018-10-05T23:42:18.006Z,11.90
2018-10-05T23:44:46.207Z,11.90
2018-10-05T23:47:14.352Z,11.80
2018-10-05T23:49:42.467Z,11.70
2018-10-05T23:52:21.993Z,11.80
2018-10-05T23:54:50.116Z,11.80
2018-10-05T23:57:18.231Z,11.70
2018-10-05T23:59:46.303Z,11.70
